createdAt,value
2018-02-18T00:01:41.772Z,30.97
2018-02-18T00:04:10.453Z,33.17
2018-02-18T00:06:38.808Z,36.43
2018-02-18T00:09:07.144Z,33.23
2018-02-18T00:11:35.564Z,34.90
2018-02-18T00:14:04.701Z,38.77
2018-02-18T00:16:33.619Z,34.03
2018-02-18T00:19:01.963Z,35.80
2018-02-18T00:21:30.339Z,34.60
2018-02-18T00:23:59.006Z,36.17
2018-02-18T00:26:27.432Z,36.67
2018-02-18T00:28:55.781Z,32.60
2018-02-18T00:31:24.157Z,33.53
2018-02-18T00:33:52.518Z,34.47
2018-02-18T00:36:20.916Z,33.87
2018-02-18T00:38:49.238Z,34.00
2018-02-18T00:41:17.818Z,36.50
2018-02-18T00:43:46.237Z,35.43
2018-02-18T00:46:14.852Z,35.70
2018-02-18T00:48:43.202Z,34.97
2018-02-18T00:51:11.591Z,36.57
2018-02-18T00:53:40.377Z,39.70
2018-02-18T00:56:08.834Z,35.67
2018-02-18T00:58:37.168Z,35.00
2018-02-18T01:01:05.806Z,38.57
2018-02-18T01:03:34.163Z,36.37
2018-02-18T01:06:02.782Z,38.70
2018-02-18T01:08:31.110Z,37.80
2018-02-18T01:10:59.798Z,35.70
2018-02-18T01:13:28.156Z,35.20
2018-02-18T01:15:56.556Z,38.67
2018-02-18T01:18:25.011Z,39.70
2018-02-18T01:20:53.474Z,36.00
2018-02-18T01:23:21.939Z,35.03
2018-02-18T01:25:50.328Z,39.20
2018-02-18T01:28:18.683Z,36.07
2018-02-18T01:30:47.034Z,35.90
2018-02-18T01:33:15.388Z,36.20
2018-02-18T01:35:44.081Z,34.90
2018-02-18T01:38:13.185Z,34.80
2018-02-18T01:40:41.757Z,39.20
2018-02-18T01:43:10.602Z,35.53
2018-02-18T01:45:38.966Z,39.00
2018-02-18T01:48:07.344Z,36.37
2018-02-18T01:50:37.595Z,41.20
2018-02-18T01:55:40.670Z,36.27
2018-02-18T01:58:09.006Z,38.30
2018-02-18T02:00:37.353Z,36.30
2018-02-18T02:03:05.864Z,39.80
2018-02-18T02:05:34.309Z,36.77
2018-02-18T02:08:02.673Z,34.10
2018-02-18T02:10:31.055Z,34.93
2018-02-18T02:12:59.469Z,35.13
2018-02-18T02:15:27.792Z,37.90
2018-02-18T02:17:56.148Z,39.03
2018-02-18T02:20:24.496Z,38.37
2018-02-18T02:22:52.924Z,41.90
2018-02-18T02:25:21.659Z,37.20
2018-02-18T02:27:50.354Z,40.13
2018-02-18T02:30:18.701Z,38.30
2018-02-18T02:32:47.065Z,36.70
2018-02-18T02:35:15.395Z,37.80
2018-02-18T02:37:43.790Z,34.77
2018-02-18T02:40:12.142Z,38.17
2018-02-18T02:42:40.529Z,39.67
2018-02-18T02:45:08.847Z,38.17
2018-02-18T02:47:37.430Z,39.00
2018-02-18T02:50:05.842Z,38.97
2018-02-18T02:52:34.198Z,37.80
2018-02-18T02:55:02.640Z,39.60
2018-02-18T02:57:30.992Z,39.33
2018-02-18T02:59:59.438Z,39.93
2018-02-18T03:02:27.814Z,36.60
2018-02-18T03:04:56.245Z,37.80
2018-02-18T03:07:24.591Z,42.20
2018-02-18T03:09:52.941Z,34.87
2018-02-18T03:12:21.306Z,38.40
2018-02-18T03:14:49.625Z,38.47
2018-02-18T03:17:17.973Z,39.43
2018-02-18T03:19:46.341Z,37.93
2018-02-18T03:22:14.672Z,36.67
2018-02-18T03:24:44.257Z,38.77
2018-02-18T03:27:12.627Z,37.30
2018-02-18T03:29:41.017Z,40.97
2018-02-18T03:32:09.376Z,38.60
2018-02-18T03:34:37.784Z,37.90
2018-02-18T03:37:06.129Z,38.67
2018-02-18T03:39:34.482Z,37.83
2018-02-18T03:42:02.870Z,42.53
2018-02-18T03:44:31.228Z,37.70
2018-02-18T03:46:59.566Z,39.07
2018-02-18T03:49:27.944Z,38.13
2018-02-18T03:51:56.293Z,37.73
2018-02-18T03:54:24.721Z,36.27
2018-02-18T03:56:53.081Z,38.87
2018-02-18T03:59:21.425Z,41.33
2018-02-18T04:01:49.812Z,39.70
2018-02-18T04:04:18.180Z,41.37
2018-02-18T04:06:46.565Z,38.87
2018-02-18T04:09:14.917Z,39.67
2018-02-18T04:11:43.302Z,39.97
2018-02-18T04:14:11.655Z,38.77
2018-02-18T04:16:39.991Z,37.30
2018-02-18T04:19:08.341Z,40.67
2018-02-18T04:21:36.677Z,37.70
2018-02-18T04:24:05.050Z,40.90
2018-02-18T04:26:34.361Z,40.53
2018-02-18T04:29:02.781Z,39.57
2018-02-18T04:31:31.172Z,42.10
2018-02-18T04:33:59.563Z,41.80
2018-02-18T04:36:27.949Z,38.43
2018-02-18T04:38:56.302Z,39.53
2018-02-18T04:41:24.691Z,38.60
2018-02-18T04:43:53.044Z,38.30
2018-02-18T04:46:21.424Z,41.60
2018-02-18T04:48:50.044Z,42.97
2018-02-18T04:51:18.402Z,37.00
2018-02-18T04:56:21.436Z,40.67
2018-02-18T04:58:49.791Z,38.20
2018-02-18T05:01:18.208Z,39.27
2018-02-18T05:03:46.556Z,41.30
2018-02-18T05:06:15.936Z,40.60
2018-02-18T05:08:44.304Z,43.83
2018-02-18T05:11:12.789Z,40.47
2018-02-18T05:13:41.191Z,38.20
2018-02-18T05:16:09.539Z,39.60
2018-02-18T05:18:37.875Z,38.07
2018-02-18T05:21:06.232Z,37.70
2018-02-18T05:23:34.579Z,40.70
2018-02-18T05:26:02.951Z,39.87
2018-02-18T05:28:31.307Z,43.33
2018-02-18T05:30:59.654Z,39.90
2018-02-18T05:33:28.084Z,37.40
2018-02-18T05:35:56.406Z,37.53
2018-02-18T05:38:24.774Z,39.57
2018-02-18T05:40:53.205Z,41.40
2018-02-18T05:43:21.626Z,41.53
2018-02-18T05:45:49.957Z,39.97
2018-02-18T05:48:18.356Z,40.47
2018-02-18T05:50:46.690Z,43.00
2018-02-18T05:53:15.912Z,41.30
2018-02-18T05:55:44.291Z,37.97
2018-02-18T05:58:12.621Z,42.57
2018-02-18T06:00:41.092Z,41.70
2018-02-18T06:03:09.424Z,43.23
2018-02-18T06:05:37.768Z,42.03
2018-02-18T06:08:06.101Z,41.73
2018-02-18T06:10:34.460Z,41.20
2018-02-18T06:13:02.821Z,42.27
2018-02-18T06:15:31.163Z,42.00
2018-02-18T06:17:59.550Z,41.57
2018-02-18T06:20:27.899Z,37.17
2018-02-18T06:22:56.242Z,39.57
2018-02-18T06:25:24.621Z,39.83
2018-02-18T06:27:52.984Z,40.10
2018-02-18T06:30:21.330Z,40.83
2018-02-18T06:32:49.711Z,41.07
2018-02-18T06:35:18.098Z,40.57
2018-02-18T06:37:46.479Z,41.90
2018-02-18T06:40:14.856Z,39.70
2018-02-18T06:42:43.304Z,37.90
2018-02-18T06:45:11.742Z,39.53
2018-02-18T06:47:40.125Z,45.87
2018-02-18T06:50:11.055Z,40.80
2018-02-18T06:52:39.420Z,40.37
2018-02-18T06:55:07.742Z,42.23
2018-02-18T06:57:36.156Z,40.40
2018-02-18T07:00:04.515Z,39.77
2018-02-18T07:02:32.944Z,42.67
2018-02-18T07:05:01.295Z,42.20
2018-02-18T07:07:29.636Z,40.70
2018-02-18T07:09:58.052Z,39.07
2018-02-18T07:12:26.386Z,42.37
2018-02-18T07:14:54.772Z,42.23
2018-02-18T07:17:23.169Z,36.53
2018-02-18T07:19:51.548Z,38.30
2018-02-18T07:22:19.900Z,44.00
2018-02-18T07:24:48.262Z,40.30
2018-02-18T07:27:16.613Z,40.73
2018-02-18T07:29:45.156Z,42.50
2018-02-18T07:32:13.493Z,38.97
2018-02-18T07:34:41.881Z,40.10
2018-02-18T07:37:11.036Z,36.67
2018-02-18T07:39:39.411Z,38.80
2018-02-18T07:42:07.966Z,39.73
2018-02-18T07:44:36.402Z,39.00
2018-02-18T07:47:04.724Z,38.13
2018-02-18T07:49:33.103Z,33.37
2018-02-18T07:52:01.455Z,35.40
2018-02-18T07:54:29.881Z,35.70
2018-02-18T07:56:58.209Z,36.07
2018-02-18T07:59:26.556Z,36.00
2018-02-18T08:01:54.921Z,41.07
2018-02-18T08:04:23.260Z,39.37
2018-02-18T08:06:51.657Z,42.20
2018-02-18T08:09:20.004Z,38.83
2018-02-18T08:11:48.347Z,38.63
2018-02-18T08:14:16.689Z,39.97
2018-02-18T08:16:45.043Z,38.70
2018-02-18T08:19:13.436Z,41.50
2018-02-18T08:21:41.791Z,37.53
2018-02-18T08:24:10.146Z,35.77
2018-02-18T08:26:38.479Z,37.40
2018-02-18T08:29:06.889Z,34.40
2018-02-18T08:31:35.219Z,34.50
2018-02-18T08:34:03.545Z,35.87
2018-02-18T08:36:32.175Z,40.77
2018-02-18T08:39:00.597Z,38.10
2018-02-18T08:41:29.197Z,36.27
2018-02-18T08:43:57.664Z,35.50
2018-02-18T08:46:26.415Z,36.40
2018-02-18T08:48:55.101Z,36.80
2018-02-18T08:51:23.421Z,35.87
2018-02-18T08:53:51.936Z,33.20
2018-02-18T08:56:20.423Z,32.20
2018-02-18T08:58:48.765Z,35.27
2018-02-18T09:01:17.085Z,30.03
2018-02-18T09:03:45.412Z,28.27
2018-02-18T09:06:13.756Z,35.30
2018-02-18T09:08:42.168Z,38.83
2018-02-18T09:11:10.880Z,36.97
2018-02-18T09:13:39.180Z,36.03
2018-02-18T09:16:07.514Z,38.57
2018-02-18T09:18:35.852Z,39.50
2018-02-18T09:21:04.188Z,41.67
2018-02-18T09:23:32.535Z,40.40
2018-02-18T09:26:01.133Z,37.10
2018-02-18T09:28:29.479Z,39.00
2018-02-18T09:31:01.714Z,40.90
2018-02-18T09:33:30.713Z,41.47
2018-02-18T09:35:59.022Z,43.60
2018-02-18T09:38:27.373Z,38.63
2018-02-18T09:40:55.690Z,41.97
2018-02-18T09:43:24.020Z,43.50
2018-02-18T09:45:52.368Z,40.33
2018-02-18T09:48:26.685Z,38.47
2018-02-18T09:50:55.027Z,37.00
2018-02-18T09:53:23.366Z,33.90
2018-02-18T09:55:51.742Z,35.53
2018-02-18T09:58:20.084Z,42.90
2018-02-18T10:00:48.413Z,45.17
2018-02-18T10:03:16.799Z,41.60
2018-02-18T10:05:45.211Z,42.60
2018-02-18T10:08:13.621Z,46.63
2018-02-18T10:10:42.930Z,41.83
2018-02-18T10:13:11.286Z,40.80
2018-02-18T10:15:39.733Z,43.57
2018-02-18T10:18:08.092Z,41.77
2018-02-18T10:20:36.454Z,35.40
2018-02-18T10:23:04.814Z,41.67
2018-02-18T10:25:33.158Z,31.80
2018-02-18T10:28:01.542Z,33.23
2018-02-18T10:30:29.888Z,35.33
2018-02-18T10:32:58.242Z,43.43
2018-02-18T10:35:26.573Z,41.77
2018-02-18T10:37:54.933Z,45.40
2018-02-18T10:40:23.293Z,46.63
2018-02-18T10:42:51.953Z,43.50
2018-02-18T10:45:20.377Z,46.53
2018-02-18T10:47:48.760Z,43.17
2018-02-18T10:50:17.104Z,44.20
2018-02-18T10:52:45.488Z,43.40
2018-02-18T10:55:13.884Z,44.93
2018-02-18T10:57:42.344Z,44.50
2018-02-18T11:00:11.497Z,42.27
2018-02-18T11:02:40.774Z,44.67
2018-02-18T11:05:09.188Z,43.73
2018-02-18T11:07:37.903Z,41.33
2018-02-18T11:10:06.222Z,40.13
2018-02-18T11:12:34.606Z,40.63
2018-02-18T11:15:02.976Z,43.03
2018-02-18T11:17:31.305Z,44.07
2018-02-18T11:19:59.645Z,41.07
2018-02-18T11:22:28.003Z,43.03
2018-02-18T11:24:56.363Z,41.07
2018-02-18T11:27:24.684Z,43.10
2018-02-18T11:29:54.860Z,43.13
2018-02-18T11:32:23.176Z,39.53
2018-02-18T11:34:51.533Z,41.87
2018-02-18T11:37:19.941Z,42.93
2018-02-18T11:39:48.539Z,39.40
2018-02-18T11:42:16.955Z,41.67
2018-02-18T11:44:45.301Z,41.43
2018-02-18T11:47:13.634Z,39.10
2018-02-18T11:49:42.226Z,41.07
2018-02-18T11:52:10.596Z,43.90
2018-02-18T11:54:38.990Z,35.20
2018-02-18T11:57:09.181Z,41.10
2018-02-18T11:59:37.700Z,38.50
2018-02-18T12:02:06.157Z,39.30
2018-02-18T12:04:34.579Z,37.83
2018-02-18T12:07:02.913Z,40.83
2018-02-18T12:09:31.345Z,42.40
2018-02-18T12:14:34.195Z,38.93
2018-02-18T12:17:02.541Z,38.63
2018-02-18T12:19:30.866Z,38.97
2018-02-18T12:21:59.818Z,41.37
2018-02-18T12:24:28.224Z,38.73
2018-02-18T12:26:56.585Z,42.37
2018-02-18T12:29:25.039Z,36.50
2018-02-18T12:31:53.364Z,36.60
2018-02-18T12:34:21.733Z,39.57
2018-02-18T12:36:50.059Z,34.90
2018-02-18T12:39:18.919Z,35.20
2018-02-18T12:41:47.536Z,35.43
2018-02-18T12:44:15.943Z,35.87
2018-02-18T12:46:44.418Z,30.90
2018-02-18T12:49:12.765Z,34.37
2018-02-18T12:51:41.142Z,33.20
2018-02-18T12:54:09.496Z,37.57
2018-02-18T12:56:41.945Z,37.03
2018-02-18T12:59:10.375Z,34.50
2018-02-18T13:01:39.650Z,33.20
2018-02-18T13:04:07.967Z,33.13
2018-02-18T13:06:36.396Z,30.30
2018-02-18T13:09:05.204Z,35.67
2018-02-18T13:11:33.991Z,30.03
2018-02-18T13:14:02.457Z,29.63
2018-02-18T13:16:30.891Z,33.87
2018-02-18T13:18:59.258Z,33.00
2018-02-18T13:21:27.588Z,30.70
2018-02-18T13:24:00.942Z,34.10
2018-02-18T13:26:29.303Z,32.90
2018-02-18T13:28:58.042Z,34.03
2018-02-18T13:31:26.377Z,34.93
2018-02-18T13:33:54.740Z,33.73
2018-02-18T13:36:23.116Z,33.60
2018-02-18T13:38:51.729Z,36.60
2018-02-18T13:41:20.098Z,35.87
2018-02-18T13:43:48.485Z,33.90
2018-02-18T13:46:16.843Z,33.50
2018-02-18T13:48:45.925Z,33.10
2018-02-18T13:51:14.272Z,33.70
2018-02-18T13:53:42.770Z,29.90
2018-02-18T13:56:11.109Z,34.70
2018-02-18T13:58:39.436Z,34.70
2018-02-18T14:01:08.474Z,30.60
2018-02-18T14:03:38.631Z,30.00
2018-02-18T14:06:07.035Z,32.53
2018-02-18T14:08:35.503Z,30.30
2018-02-18T14:11:03.932Z,29.43
2018-02-18T14:13:32.273Z,28.60
2018-02-18T14:16:01.040Z,29.23
2018-02-18T14:18:30.899Z,28.70
2018-02-18T14:20:59.365Z,27.13
2018-02-18T14:26:00.123Z,29.70
2018-02-18T14:28:28.446Z,27.57
2018-02-18T14:30:56.950Z,28.73
2018-02-18T14:33:25.274Z,27.40
2018-02-18T14:35:53.658Z,28.60
2018-02-18T14:38:22.202Z,27.20
2018-02-18T14:40:50.640Z,27.90
2018-02-18T14:43:30.686Z,27.33
2018-02-18T14:46:11.547Z,24.07
2018-02-18T14:52:01.492Z,25.40
2018-02-18T14:57:42.292Z,23.20
2018-02-18T15:00:10.658Z,20.50
2018-02-18T15:02:39.078Z,23.30
2018-02-18T15:05:07.436Z,21.70
2018-02-18T15:07:35.859Z,21.73
2018-02-18T15:10:04.484Z,16.90
2018-02-18T15:12:33.033Z,19.00
2018-02-18T15:15:01.564Z,18.53
2018-02-18T15:17:30.510Z,18.40
2018-02-18T15:19:58.881Z,16.20
2018-02-18T15:22:27.511Z,19.57
2018-02-18T15:24:55.858Z,18.47
2018-02-18T15:27:25.048Z,20.40
2018-02-18T15:29:53.383Z,20.43
2018-02-18T15:32:21.855Z,18.37
2018-02-18T15:34:50.163Z,17.33
2018-02-18T15:37:18.666Z,18.50
2018-02-18T15:39:47.681Z,15.87
2018-02-18T15:44:48.577Z,12.80
2018-02-18T15:47:19.348Z,16.37
2018-02-18T15:49:48.121Z,10.57
2018-02-18T15:52:17.464Z,11.77
2018-02-18T15:54:45.843Z,18.63
2018-02-18T15:57:14.345Z,19.33
2018-02-18T15:59:42.724Z,18.47
2018-02-18T16:02:11.049Z,7.00
2018-02-18T16:04:39.453Z,14.10
2018-02-18T16:07:07.934Z,11.80
2018-02-18T16:09:36.361Z,12.10
2018-02-18T16:12:04.735Z,14.27
2018-02-18T16:14:33.130Z,15.80
2018-02-18T16:17:01.478Z,12.77
2018-02-18T16:19:29.972Z,15.00
2018-02-18T16:22:01.868Z,16.03
2018-02-18T16:24:30.189Z,15.07
2018-02-18T16:26:59.336Z,14.90
2018-02-18T16:29:29.071Z,15.67
2018-02-18T16:31:57.654Z,12.80
2018-02-18T16:39:32.514Z,17.63
2018-02-18T16:42:00.861Z,16.20
2018-02-18T16:44:29.234Z,19.47
2018-02-18T16:46:57.607Z,14.93
2018-02-18T16:49:25.992Z,17.63
2018-02-18T16:51:55.538Z,19.50
2018-02-18T16:54:23.892Z,16.60
2018-02-18T16:56:52.216Z,17.27
2018-02-18T16:59:20.594Z,16.60
2018-02-18T17:06:54.079Z,19.73
2018-02-18T17:09:22.416Z,18.03
2018-02-18T17:11:50.774Z,14.50
2018-02-18T17:14:19.369Z,19.23
2018-02-18T17:16:47.777Z,17.60
2018-02-18T17:19:17.032Z,20.27
2018-02-18T17:21:45.397Z,16.60
2018-02-18T17:24:13.873Z,21.70
2018-02-18T17:26:42.354Z,21.73
2018-02-18T17:29:11.707Z,24.50
2018-02-18T17:31:41.030Z,21.10
2018-02-18T17:34:09.392Z,25.80
2018-02-18T17:36:37.833Z,22.17
2018-02-18T17:39:06.205Z,23.20
2018-02-18T17:41:35.021Z,24.37
2018-02-18T17:44:03.369Z,24.80
2018-02-18T17:46:31.837Z,26.13
2018-02-18T17:49:00.234Z,21.60
2018-02-18T17:54:01.289Z,27.23
2018-02-18T17:56:29.653Z,27.50
2018-02-18T18:01:32.618Z,30.73
2018-02-18T18:06:41.467Z,29.23
2018-02-18T18:14:19.442Z,30.00
2018-02-18T18:16:51.352Z,32.10
2018-02-18T18:19:19.837Z,29.93
2018-02-18T18:21:48.172Z,30.87
2018-02-18T18:24:17.090Z,31.27
2018-02-18T18:26:49.155Z,29.97
2018-02-18T18:29:17.582Z,29.83
2018-02-18T18:31:46.277Z,32.67
2018-02-18T18:34:15.578Z,30.87
2018-02-18T18:36:46.741Z,31.17
2018-02-18T18:39:15.470Z,29.83
2018-02-18T18:41:43.925Z,29.70
2018-02-18T18:44:13.712Z,33.30
2018-02-18T18:46:42.198Z,32.43
2018-02-18T18:49:10.778Z,34.10
2018-02-18T18:51:39.626Z,31.77
2018-02-18T18:54:08.029Z,30.27
2018-02-18T18:56:36.437Z,30.47
2018-02-18T18:59:12.543Z,34.17
2018-02-18T19:01:42.857Z,31.70
2018-02-18T19:06:43.778Z,33.00
2018-02-18T19:09:12.879Z,32.20
2018-02-18T19:11:45.060Z,29.00
2018-02-18T19:14:13.421Z,35.40
2018-02-18T19:16:41.787Z,29.87
2018-02-18T19:19:10.270Z,32.10
2018-02-18T19:21:38.702Z,32.93
2018-02-18T19:24:07.039Z,32.37
2018-02-18T19:26:35.375Z,31.97
2018-02-18T19:29:03.806Z,33.67
2018-02-18T19:31:32.176Z,33.90
2018-02-18T19:34:00.725Z,30.63
2018-02-18T19:36:29.102Z,36.37
2018-02-18T19:38:57.645Z,39.40
2018-02-18T19:41:29.385Z,35.30
2018-02-18T19:43:57.745Z,35.03
2018-02-18T19:46:26.229Z,34.07
2018-02-18T19:48:54.585Z,32.47
2018-02-18T19:51:22.922Z,34.60
2018-02-18T19:53:51.734Z,35.20
2018-02-18T19:56:20.347Z,33.03
2018-02-18T19:58:48.809Z,34.97
2018-02-18T20:01:17.157Z,35.97
2018-02-18T20:03:45.788Z,37.93
2018-02-18T20:06:14.458Z,36.90
2018-02-18T20:08:42.876Z,38.20
2018-02-18T20:11:11.613Z,36.07
2018-02-18T20:13:40.050Z,37.00
2018-02-18T20:16:08.626Z,39.37
2018-02-18T20:18:37.634Z,38.87
2018-02-18T20:21:06.065Z,38.97
2018-02-18T20:23:36.395Z,37.23
2018-02-18T20:26:06.090Z,39.33
2018-02-18T20:28:35.433Z,38.50
2018-02-18T20:31:04.111Z,38.83
2018-02-18T20:33:32.724Z,37.93
2018-02-18T20:36:01.462Z,36.73
2018-02-18T20:38:29.889Z,39.20
2018-02-18T20:41:00.286Z,40.20
2018-02-18T20:43:29.089Z,39.90
2018-02-18T20:45:57.827Z,40.47
2018-02-18T20:48:26.262Z,38.50
2018-02-18T20:50:59.877Z,41.17
2018-02-18T20:53:28.581Z,38.40
2018-02-18T20:55:57.874Z,43.37
2018-02-18T20:58:27.457Z,42.07
2018-02-18T21:00:56.076Z,40.87
2018-02-18T21:03:24.555Z,44.10
2018-02-18T21:05:53.302Z,42.60
2018-02-18T21:08:21.744Z,45.80
2018-02-18T21:10:51.248Z,41.87
2018-02-18T21:13:21.008Z,40.93
2018-02-18T21:15:49.527Z,45.27
2018-02-18T21:18:19.135Z,40.67
2018-02-18T21:20:47.829Z,35.67
2018-02-18T21:23:16.267Z,38.87
2018-02-18T21:25:44.693Z,43.63
2018-02-18T21:28:13.159Z,41.73
2018-02-18T21:30:42.354Z,42.67
2018-02-18T21:33:14.579Z,40.43
2018-02-18T21:35:46.808Z,40.60
2018-02-18T21:38:15.573Z,41.50
2018-02-18T21:40:44.467Z,40.80
2018-02-18T21:43:13.425Z,43.13
2018-02-18T21:45:42.708Z,39.47
2018-02-18T21:48:11.527Z,42.37
2018-02-18T21:50:40.047Z,44.47
2018-02-18T21:53:12.318Z,39.63
2018-02-18T21:55:42.057Z,41.93
2018-02-18T21:58:12.263Z,38.90
2018-02-18T22:00:40.640Z,21.27
2018-02-18T22:03:10.113Z,37.57
2018-02-18T22:05:38.731Z,26.50
2018-02-18T22:08:07.820Z,39.07
2018-02-18T22:10:40.199Z,38.57
2018-02-18T22:13:10.821Z,42.13
2018-02-18T22:15:41.039Z,40.77
2018-02-18T22:18:09.773Z,38.77
2018-02-18T22:20:39.812Z,38.87
2018-02-18T22:23:08.456Z,41.97
2018-02-18T22:25:36.790Z,36.63
2018-02-18T22:28:05.149Z,42.60
2018-02-18T22:30:33.539Z,40.50
2018-02-18T22:33:01.954Z,38.00
2018-02-18T22:35:30.292Z,37.70
2018-02-18T22:37:58.641Z,37.77
2018-02-18T22:40:26.993Z,18.13
2018-02-18T22:42:55.343Z,33.37
2018-02-18T22:45:23.693Z,34.43
2018-02-18T22:47:52.056Z,38.87
2018-02-18T22:50:20.426Z,37.50
2018-02-18T22:52:49.043Z,36.83
2018-02-18T22:55:17.428Z,38.60
2018-02-18T22:57:45.747Z,39.73
2018-02-18T23:00:17.950Z,40.13
2018-02-18T23:02:46.319Z,39.20
2018-02-18T23:05:20.262Z,41.40
2018-02-18T23:07:48.622Z,38.70
2018-02-18T23:10:17.012Z,37.47
2018-02-18T23:12:45.416Z,37.97
2018-02-18T23:15:13.767Z,36.20
2018-02-18T23:17:43.056Z,35.77
2018-02-18T23:20:11.410Z,33.00
2018-02-18T23:22:39.748Z,35.67
2018-02-18T23:25:08.064Z,36.23
2018-02-18T23:27:36.446Z,35.10
2018-02-18T23:30:04.787Z,33.70
2018-02-18T23:32:33.125Z,31.20
2018-02-18T23:35:01.496Z,31.97
2018-02-18T23:37:29.836Z,34.87
2018-02-18T23:39:58.202Z,28.33
2018-02-18T23:42:26.537Z,33.57
2018-02-18T23:44:54.882Z,30.40
2018-02-18T23:47:23.281Z,25.60
2018-02-18T23:49:51.628Z,29.90
2018-02-18T23:52:20.025Z,32.63
2018-02-18T23:54:48.439Z,26.93
2018-02-18T23:57:16.811Z,30.47
2018-02-18T23:59:45.190Z,33.07
